sensor_id;sensor_type;location;lat;lon;timestamp;P1;durP1;ratioP1;P2;durP2;ratioP2
21038;SDS011;10678;51.002;4.786;2023-02-28T00:00:31;11.07;;;4.23;;
21038;SDS011;10678;51.002;4.786;2023-02-28T00:02:56;8.20;;;4.23;;
21038;SDS011;10678;51.002;4.786;2023-02-28T00:05:23;7.73;;;4.20;;
21038;SDS011;10678;51.002;4.786;2023-02-28T00:07:50;9.00;;;4.27;;
21038;SDS011;10678;51.002;4.786;2023-02-28T00:10:17;7.93;;;4.13;;
21038;SDS011;10678;51.002;4.786;2023-02-28T00:12:46;6.97;;;4.03;;
21038;SDS011;10678;51.002;4.786;2023-02-28T00:15:12;7.73;;;4.50;;
21038;SDS011;10678;51.002;4.786;2023-02-28T00:17:38;6.57;;;3.97;;
21038;SDS011;10678;51.002;4.786;2023-02-28T00:20:04;10.43;;;4.43;;
21038;SDS011;10678;51.002;4.786;2023-02-28T00:22:35;7.63;;;4.27;;
21038;SDS011;10678;51.002;4.786;2023-02-28T00:25:01;13.47;;;4.60;;
21038;SDS011;10678;51.002;4.786;2023-02-28T00:27:28;12.63;;;4.67;;
21038;SDS011;10678;51.002;4.786;2023-02-28T00:29:54;9.57;;;4.97;;
21038;SDS011;10678;51.002;4.786;2023-02-28T00:32:20;11.63;;;4.03;;
21038;SDS011;10678;51.002;4.786;2023-02-28T00:34:46;7.40;;;4.00;;
21038;SDS011;10678;51.002;4.786;2023-02-28T00:37:11;7.60;;;4.33;;
21038;SDS011;10678;51.002;4.786;2023-02-28T00:39:37;7.00;;;3.57;;
21038;SDS011;10678;51.002;4.786;2023-02-28T00:42:04;9.87;;;4.67;;
21038;SDS011;10678;51.002;4.786;2023-02-28T00:44:30;7.57;;;3.93;;
21038;SDS011;10678;51.002;4.786;2023-02-28T00:46:56;8.90;;;4.50;;
21038;SDS011;10678;51.002;4.786;2023-02-28T00:49:22;12.23;;;4.60;;
21038;SDS011;10678;51.002;4.786;2023-02-28T00:51:48;11.27;;;4.20;;
21038;SDS011;10678;51.002;4.786;2023-02-28T00:54:14;9.77;;;4.90;;
21038;SDS011;10678;51.002;4.786;2023-02-28T00:56:40;7.80;;;4.27;;
21038;SDS011;10678;51.002;4.786;2023-02-28T00:59:06;8.80;;;4.43;;
21038;SDS011;10678;51.002;4.786;2023-02-28T01:01:32;12.17;;;4.93;;
21038;SDS011;10678;51.002;4.786;2023-02-28T01:03:58;12.23;;;4.83;;
21038;SDS011;10678;51.002;4.786;2023-02-28T01:06:24;8.10;;;4.63;;
21038;SDS011;10678;51.002;4.786;2023-02-28T01:08:49;9.53;;;4.30;;
21038;SDS011;10678;51.002;4.786;2023-02-28T01:11:16;9.63;;;5.17;;
21038;SDS011;10678;51.002;4.786;2023-02-28T01:13:43;7.60;;;4.30;;
21038;SDS011;10678;51.002;4.786;2023-02-28T01:16:10;10.67;;;4.77;;
21038;SDS011;10678;51.002;4.786;2023-02-28T01:18:36;8.40;;;4.77;;
21038;SDS011;10678;51.002;4.786;2023-02-28T01:21:03;10.73;;;5.07;;
21038;SDS011;10678;51.002;4.786;2023-02-28T01:23:30;10.37;;;4.33;;
21038;SDS011;10678;51.002;4.786;2023-02-28T01:25:55;10.47;;;5.03;;
21038;SDS011;10678;51.002;4.786;2023-02-28T01:28:21;11.43;;;5.03;;
21038;SDS011;10678;51.002;4.786;2023-02-28T01:30:47;8.23;;;4.60;;
21038;SDS011;10678;51.002;4.786;2023-02-28T01:33:14;11.17;;;6.33;;
21038;SDS011;10678;51.002;4.786;2023-02-28T01:35:39;12.63;;;5.70;;
21038;SDS011;10678;51.002;4.786;2023-02-28T01:38:05;13.33;;;6.03;;
21038;SDS011;10678;51.002;4.786;2023-02-28T01:40:30;13.43;;;5.30;;
21038;SDS011;10678;51.002;4.786;2023-02-28T01:42:56;14.00;;;6.03;;
21038;SDS011;10678;51.002;4.786;2023-02-28T01:45:23;10.33;;;5.47;;
21038;SDS011;10678;51.002;4.786;2023-02-28T01:47:53;11.73;;;5.20;;
21038;SDS011;10678;51.002;4.786;2023-02-28T01:50:29;10.53;;;5.87;;
21038;SDS011;10678;51.002;4.786;2023-02-28T01:53:00;11.57;;;6.80;;
21038;SDS011;10678;51.002;4.786;2023-02-28T01:55:29;10.07;;;5.93;;
21038;SDS011;10678;51.002;4.786;2023-02-28T01:57:58;9.43;;;5.43;;
21038;SDS011;10678;51.002;4.786;2023-02-28T02:00:27;11.80;;;6.00;;
21038;SDS011;10678;51.002;4.786;2023-02-28T02:03:04;12.90;;;5.33;;
21038;SDS011;10678;51.002;4.786;2023-02-28T02:05:34;9.53;;;5.30;;
21038;SDS011;10678;51.002;4.786;2023-02-28T02:08:06;11.80;;;5.93;;
21038;SDS011;10678;51.002;4.786;2023-02-28T02:10:36;12.47;;;5.77;;
21038;SDS011;10678;51.002;4.786;2023-02-28T02:15:48;10.37;;;6.00;;
21038;SDS011;10678;51.002;4.786;2023-02-28T02:24:03;10.83;;;6.60;;
21038;SDS011;10678;51.002;4.786;2023-02-28T02:37:38;9.40;;;5.30;;
21038;SDS011;10678;51.002;4.786;2023-02-28T02:40:22;11.87;;;6.10;;
21038;SDS011;10678;51.002;4.786;2023-02-28T02:45:57;12.00;;;6.33;;
21038;SDS011;10678;51.002;4.786;2023-02-28T02:48:27;16.80;;;5.73;;
21038;SDS011;10678;51.002;4.786;2023-02-28T02:51:01;10.20;;;5.80;;
21038;SDS011;10678;51.002;4.786;2023-02-28T02:53:33;12.23;;;6.80;;
21038;SDS011;10678;51.002;4.786;2023-02-28T02:56:02;14.70;;;5.97;;
21038;SDS011;10678;51.002;4.786;2023-02-28T02:58:31;9.73;;;6.03;;
21038;SDS011;10678;51.002;4.786;2023-02-28T03:01:06;12.60;;;6.80;;
21038;SDS011;10678;51.002;4.786;2023-02-28T03:03:35;10.13;;;6.07;;
21038;SDS011;10678;51.002;4.786;2023-02-28T03:06:02;11.73;;;6.10;;
21038;SDS011;10678;51.002;4.786;2023-02-28T03:08:29;11.37;;;6.30;;
21038;SDS011;10678;51.002;4.786;2023-02-28T03:10:59;12.47;;;6.30;;
21038;SDS011;10678;51.002;4.786;2023-02-28T03:16:16;14.27;;;5.77;;
21038;SDS011;10678;51.002;4.786;2023-02-28T03:18:53;13.00;;;6.03;;
21038;SDS011;10678;51.002;4.786;2023-02-28T03:24:24;12.40;;;6.47;;
21038;SDS011;10678;51.002;4.786;2023-02-28T03:26:53;12.53;;;5.87;;
21038;SDS011;10678;51.002;4.786;2023-02-28T03:29:29;14.63;;;7.00;;
21038;SDS011;10678;51.002;4.786;2023-02-28T03:32:03;12.00;;;6.70;;
21038;SDS011;10678;51.002;4.786;2023-02-28T03:37:04;12.80;;;6.60;;
21038;SDS011;10678;51.002;4.786;2023-02-28T03:39:35;11.57;;;7.03;;
21038;SDS011;10678;51.002;4.786;2023-02-28T03:42:06;10.17;;;6.20;;
21038;SDS011;10678;51.002;4.786;2023-02-28T03:44:38;16.17;;;6.70;;
21038;SDS011;10678;51.002;4.786;2023-02-28T03:47:16;12.27;;;6.93;;
21038;SDS011;10678;51.002;4.786;2023-02-28T03:49:54;15.20;;;6.77;;
21038;SDS011;10678;51.002;4.786;2023-02-28T03:52:27;13.87;;;8.00;;
21038;SDS011;10678;51.002;4.786;2023-02-28T03:54:59;11.70;;;7.10;;
21038;SDS011;10678;51.002;4.786;2023-02-28T03:57:38;13.60;;;7.53;;
21038;SDS011;10678;51.002;4.786;2023-02-28T04:00:09;16.97;;;7.43;;
21038;SDS011;10678;51.002;4.786;2023-02-28T04:02:41;12.33;;;7.17;;
21038;SDS011;10678;51.002;4.786;2023-02-28T04:05:07;15.97;;;7.67;;
21038;SDS011;10678;51.002;4.786;2023-02-28T04:07:33;10.90;;;6.40;;
21038;SDS011;10678;51.002;4.786;2023-02-28T04:09:59;13.87;;;7.23;;
21038;SDS011;10678;51.002;4.786;2023-02-28T04:12:24;16.73;;;7.03;;
21038;SDS011;10678;51.002;4.786;2023-02-28T04:14:50;16.33;;;6.63;;
21038;SDS011;10678;51.002;4.786;2023-02-28T04:17:16;14.63;;;6.73;;
21038;SDS011;10678;51.002;4.786;2023-02-28T04:19:42;12.93;;;7.17;;
21038;SDS011;10678;51.002;4.786;2023-02-28T04:22:08;12.37;;;7.50;;
21038;SDS011;10678;51.002;4.786;2023-02-28T04:24:35;11.37;;;6.73;;
21038;SDS011;10678;51.002;4.786;2023-02-28T04:27:01;18.57;;;7.03;;
21038;SDS011;10678;51.002;4.786;2023-02-28T04:29:27;16.57;;;7.57;;
21038;SDS011;10678;51.002;4.786;2023-02-28T04:31:54;16.03;;;7.67;;
21038;SDS011;10678;51.002;4.786;2023-02-28T04:34:24;15.77;;;7.87;;
21038;SDS011;10678;51.002;4.786;2023-02-28T04:36:51;14.47;;;7.00;;
21038;SDS011;10678;51.002;4.786;2023-02-28T04:39:19;11.97;;;7.33;;
21038;SDS011;10678;51.002;4.786;2023-02-28T04:41:45;12.87;;;7.93;;
21038;SDS011;10678;51.002;4.786;2023-02-28T04:44:11;12.07;;;7.73;;
21038;SDS011;10678;51.002;4.786;2023-02-28T04:46:37;12.40;;;7.70;;
21038;SDS011;10678;51.002;4.786;2023-02-28T04:49:02;16.57;;;7.73;;
21038;SDS011;10678;51.002;4.786;2023-02-28T04:51:28;13.73;;;8.10;;
21038;SDS011;10678;51.002;4.786;2023-02-28T04:53:54;11.23;;;6.97;;
21038;SDS011;10678;51.002;4.786;2023-02-28T04:56:19;14.13;;;7.57;;
21038;SDS011;10678;51.002;4.786;2023-02-28T04:58:45;14.10;;;8.67;;
21038;SDS011;10678;51.002;4.786;2023-02-28T05:01:31;13.90;;;7.87;;
21038;SDS011;10678;51.002;4.786;2023-02-28T05:03:58;14.03;;;8.53;;
21038;SDS011;10678;51.002;4.786;2023-02-28T05:06:27;18.13;;;8.13;;
21038;SDS011;10678;51.002;4.786;2023-02-28T05:08:54;16.77;;;8.87;;
21038;SDS011;10678;51.002;4.786;2023-02-28T05:11:22;12.37;;;8.07;;
21038;SDS011;10678;51.002;4.786;2023-02-28T05:13:54;14.70;;;8.27;;
21038;SDS011;10678;51.002;4.786;2023-02-28T05:16:20;17.03;;;7.87;;
21038;SDS011;10678;51.002;4.786;2023-02-28T05:18:46;15.70;;;8.53;;
21038;SDS011;10678;51.002;4.786;2023-02-28T05:21:26;12.57;;;7.53;;
21038;SDS011;10678;51.002;4.786;2023-02-28T05:23:54;15.90;;;7.90;;
21038;SDS011;10678;51.002;4.786;2023-02-28T05:26:21;13.00;;;8.27;;
21038;SDS011;10678;51.002;4.786;2023-02-28T05:28:47;15.40;;;8.20;;
21038;SDS011;10678;51.002;4.786;2023-02-28T05:31:13;16.73;;;8.97;;
21038;SDS011;10678;51.002;4.786;2023-02-28T05:33:39;14.13;;;7.57;;
21038;SDS011;10678;51.002;4.786;2023-02-28T05:36:05;13.17;;;7.87;;
21038;SDS011;10678;51.002;4.786;2023-02-28T05:38:31;11.60;;;7.10;;
21038;SDS011;10678;51.002;4.786;2023-02-28T05:40:57;13.00;;;7.40;;
21038;SDS011;10678;51.002;4.786;2023-02-28T05:43:22;11.43;;;7.17;;
21038;SDS011;10678;51.002;4.786;2023-02-28T05:45:49;12.50;;;7.67;;
21038;SDS011;10678;51.002;4.786;2023-02-28T05:48:15;14.73;;;7.57;;
21038;SDS011;10678;51.002;4.786;2023-02-28T05:50:41;16.03;;;7.70;;
21038;SDS011;10678;51.002;4.786;2023-02-28T05:53:09;12.70;;;7.00;;
21038;SDS011;10678;51.002;4.786;2023-02-28T05:55:35;12.43;;;7.73;;
21038;SDS011;10678;51.002;4.786;2023-02-28T05:58:02;13.63;;;7.70;;
21038;SDS011;10678;51.002;4.786;2023-02-28T06:00:27;15.80;;;7.97;;
21038;SDS011;10678;51.002;4.786;2023-02-28T06:02:53;15.23;;;7.77;;
21038;SDS011;10678;51.002;4.786;2023-02-28T06:05:22;15.07;;;8.37;;
21038;SDS011;10678;51.002;4.786;2023-02-28T06:07:48;13.70;;;6.40;;
21038;SDS011;10678;51.002;4.786;2023-02-28T06:10:14;12.83;;;7.07;;
21038;SDS011;10678;51.002;4.786;2023-02-28T06:12:39;15.80;;;7.43;;
21038;SDS011;10678;51.002;4.786;2023-02-28T06:15:12;11.33;;;7.37;;
21038;SDS011;10678;51.002;4.786;2023-02-28T06:17:39;13.53;;;6.10;;
21038;SDS011;10678;51.002;4.786;2023-02-28T06:20:08;11.67;;;7.23;;
21038;SDS011;10678;51.002;4.786;2023-02-28T06:22:37;15.27;;;7.57;;
21038;SDS011;10678;51.002;4.786;2023-02-28T06:25:04;15.07;;;7.60;;
21038;SDS011;10678;51.002;4.786;2023-02-28T06:27:30;11.57;;;7.10;;
21038;SDS011;10678;51.002;4.786;2023-02-28T06:29:56;14.03;;;7.03;;
21038;SDS011;10678;51.002;4.786;2023-02-28T06:32:22;17.23;;;7.83;;
21038;SDS011;10678;51.002;4.786;2023-02-28T06:34:48;14.07;;;7.37;;
21038;SDS011;10678;51.002;4.786;2023-02-28T06:37:13;14.83;;;6.80;;
21038;SDS011;10678;51.002;4.786;2023-02-28T06:39:39;12.17;;;7.03;;
21038;SDS011;10678;51.002;4.786;2023-02-28T06:42:05;10.50;;;6.70;;
21038;SDS011;10678;51.002;4.786;2023-02-28T06:44:31;10.60;;;6.80;;
21038;SDS011;10678;51.002;4.786;2023-02-28T06:47:00;11.87;;;6.90;;
21038;SDS011;10678;51.002;4.786;2023-02-28T06:49:31;12.40;;;7.40;;
21038;SDS011;10678;51.002;4.786;2023-02-28T06:51:58;13.80;;;7.00;;
21038;SDS011;10678;51.002;4.786;2023-02-28T06:54:24;15.63;;;6.90;;
21038;SDS011;10678;51.002;4.786;2023-02-28T06:56:50;15.57;;;7.10;;
21038;SDS011;10678;51.002;4.786;2023-02-28T06:59:16;11.53;;;6.53;;
21038;SDS011;10678;51.002;4.786;2023-02-28T07:01:42;12.63;;;7.20;;
21038;SDS011;10678;51.002;4.786;2023-02-28T07:04:07;12.73;;;6.67;;
21038;SDS011;10678;51.002;4.786;2023-02-28T07:06:33;13.47;;;7.00;;
21038;SDS011;10678;51.002;4.786;2023-02-28T07:08:58;11.80;;;6.90;;
21038;SDS011;10678;51.002;4.786;2023-02-28T07:11:25;14.43;;;7.50;;
21038;SDS011;10678;51.002;4.786;2023-02-28T07:13:55;13.23;;;6.60;;
21038;SDS011;10678;51.002;4.786;2023-02-28T07:16:21;12.27;;;6.93;;
21038;SDS011;10678;51.002;4.786;2023-02-28T07:18:48;12.73;;;6.57;;
21038;SDS011;10678;51.002;4.786;2023-02-28T07:21:14;15.83;;;6.67;;
21038;SDS011;10678;51.002;4.786;2023-02-28T07:23:40;10.27;;;6.10;;
21038;SDS011;10678;51.002;4.786;2023-02-28T07:26:07;12.43;;;6.47;;
21038;SDS011;10678;51.002;4.786;2023-02-28T07:28:39;12.17;;;6.70;;
21038;SDS011;10678;51.002;4.786;2023-02-28T07:31:07;15.17;;;6.93;;
21038;SDS011;10678;51.002;4.786;2023-02-28T07:33:33;12.40;;;6.10;;
21038;SDS011;10678;51.002;4.786;2023-02-28T07:36:06;15.40;;;6.80;;
21038;SDS011;10678;51.002;4.786;2023-02-28T07:38:36;13.90;;;6.57;;
21038;SDS011;10678;51.002;4.786;2023-02-28T07:41:02;19.27;;;6.57;;
21038;SDS011;10678;51.002;4.786;2023-02-28T07:43:29;13.67;;;7.10;;
21038;SDS011;10678;51.002;4.786;2023-02-28T07:45:55;11.77;;;6.07;;
21038;SDS011;10678;51.002;4.786;2023-02-28T07:48:28;10.53;;;5.90;;
21038;SDS011;10678;51.002;4.786;2023-02-28T07:50:57;11.87;;;5.77;;
21038;SDS011;10678;51.002;4.786;2023-02-28T07:53:23;10.83;;;6.37;;
21038;SDS011;10678;51.002;4.786;2023-02-28T07:55:49;12.60;;;5.90;;
21038;SDS011;10678;51.002;4.786;2023-02-28T07:58:15;11.23;;;5.77;;
21038;SDS011;10678;51.002;4.786;2023-02-28T08:00:40;11.77;;;6.40;;
21038;SDS011;10678;51.002;4.786;2023-02-28T08:03:07;10.80;;;5.73;;
21038;SDS011;10678;51.002;4.786;2023-02-28T08:05:40;9.80;;;5.43;;
21038;SDS011;10678;51.002;4.786;2023-02-28T08:08:06;9.10;;;5.03;;
21038;SDS011;10678;51.002;4.786;2023-02-28T08:10:32;9.63;;;5.20;;
21038;SDS011;10678;51.002;4.786;2023-02-28T08:12:58;8.47;;;4.83;;
21038;SDS011;10678;51.002;4.786;2023-02-28T08:15:23;10.67;;;4.97;;
21038;SDS011;10678;51.002;4.786;2023-02-28T08:17:49;10.83;;;4.60;;
21038;SDS011;10678;51.002;4.786;2023-02-28T08:20:14;8.53;;;3.90;;
21038;SDS011;10678;51.002;4.786;2023-02-28T08:22:40;8.20;;;4.47;;
21038;SDS011;10678;51.002;4.786;2023-02-28T08:25:06;8.87;;;3.93;;
21038;SDS011;10678;51.002;4.786;2023-02-28T08:27:33;7.80;;;4.10;;
21038;SDS011;10678;51.002;4.786;2023-02-28T08:29:58;10.20;;;4.10;;
21038;SDS011;10678;51.002;4.786;2023-02-28T08:32:24;6.87;;;3.27;;
21038;SDS011;10678;51.002;4.786;2023-02-28T08:34:49;6.87;;;3.20;;
21038;SDS011;10678;51.002;4.786;2023-02-28T08:37:16;7.33;;;3.63;;
21038;SDS011;10678;51.002;4.786;2023-02-28T08:39:41;8.40;;;3.10;;
21038;SDS011;10678;51.002;4.786;2023-02-28T08:42:07;8.00;;;3.23;;
21038;SDS011;10678;51.002;4.786;2023-02-28T08:44:32;8.03;;;3.13;;
21038;SDS011;10678;51.002;4.786;2023-02-28T08:46:58;7.43;;;3.83;;
21038;SDS011;10678;51.002;4.786;2023-02-28T08:49:23;7.37;;;3.47;;
21038;SDS011;10678;51.002;4.786;2023-02-28T08:51:49;7.47;;;3.33;;
21038;SDS011;10678;51.002;4.786;2023-02-28T08:54:14;7.77;;;3.03;;
21038;SDS011;10678;51.002;4.786;2023-02-28T08:56:44;6.43;;;3.17;;
21038;SDS011;10678;51.002;4.786;2023-02-28T08:59:12;9.60;;;2.90;;
21038;SDS011;10678;51.002;4.786;2023-02-28T09:01:37;6.93;;;3.60;;
21038;SDS011;10678;51.002;4.786;2023-02-28T09:04:03;7.97;;;3.47;;
21038;SDS011;10678;51.002;4.786;2023-02-28T09:06:29;7.50;;;3.20;;
21038;SDS011;10678;51.002;4.786;2023-02-28T09:08:57;7.60;;;3.00;;
21038;SDS011;10678;51.002;4.786;2023-02-28T09:11:24;6.90;;;3.27;;
21038;SDS011;10678;51.002;4.786;2023-02-28T09:13:50;12.63;;;3.05;;
21038;SDS011;10678;51.002;4.786;2023-02-28T09:16:16;6.45;;;2.80;;
21038;SDS011;10678;51.002;4.786;2023-02-28T09:18:42;5.82;;;2.83;;
21038;SDS011;10678;51.002;4.786;2023-02-28T09:21:10;6.22;;;2.65;;
21038;SDS011;10678;51.002;4.786;2023-02-28T09:23:39;5.60;;;2.47;;
21038;SDS011;10678;51.002;4.786;2023-02-28T09:26:05;6.15;;;2.75;;
21038;SDS011;10678;51.002;4.786;2023-02-28T09:28:32;5.55;;;2.65;;
21038;SDS011;10678;51.002;4.786;2023-02-28T09:30:57;7.28;;;2.40;;
21038;SDS011;10678;51.002;4.786;2023-02-28T09:33:24;5.18;;;2.10;;
21038;SDS011;10678;51.002;4.786;2023-02-28T09:35:51;5.78;;;2.20;;
21038;SDS011;10678;51.002;4.786;2023-02-28T09:38:22;4.75;;;1.85;;
21038;SDS011;10678;51.002;4.786;2023-02-28T09:43:15;4.22;;;1.83;;
21038;SDS011;10678;51.002;4.786;2023-02-28T09:45:43;4.75;;;1.75;;
21038;SDS011;10678;51.002;4.786;2023-02-28T09:48:34;5.78;;;2.38;;
21038;SDS011;10678;51.002;4.786;2023-02-28T09:51:03;4.78;;;1.92;;
21038;SDS011;10678;51.002;4.786;2023-02-28T09:53:35;5.10;;;1.90;;
21038;SDS011;10678;51.002;4.786;2023-02-28T09:56:05;7.53;;;1.73;;
21038;SDS011;10678;51.002;4.786;2023-02-28T09:58:39;7.22;;;1.92;;
21038;SDS011;10678;51.002;4.786;2023-02-28T10:04:15;3.95;;;1.83;;
21038;SDS011;10678;51.002;4.786;2023-02-28T10:07:02;4.72;;;1.77;;
21038;SDS011;10678;51.002;4.786;2023-02-28T10:09:42;6.05;;;1.52;;
21038;SDS011;10678;51.002;4.786;2023-02-28T10:12:09;4.93;;;1.40;;
21038;SDS011;10678;51.002;4.786;2023-02-28T10:14:37;6.53;;;1.83;;
21038;SDS011;10678;51.002;4.786;2023-02-28T10:17:11;4.97;;;1.75;;
21038;SDS011;10678;51.002;4.786;2023-02-28T10:20:02;4.78;;;1.30;;
21038;SDS011;10678;51.002;4.786;2023-02-28T10:25:24;3.97;;;1.35;;
21038;SDS011;10678;51.002;4.786;2023-02-28T10:27:58;4.10;;;1.45;;
21038;SDS011;10678;51.002;4.786;2023-02-28T10:30:32;3.63;;;1.40;;
21038;SDS011;10678;51.002;4.786;2023-02-28T10:32:57;3.50;;;1.30;;
21038;SDS011;10678;51.002;4.786;2023-02-28T10:35:24;4.18;;;1.50;;
21038;SDS011;10678;51.002;4.786;2023-02-28T10:37:53;5.93;;;1.60;;
21038;SDS011;10678;51.002;4.786;2023-02-28T10:45:21;5.82;;;1.85;;
21038;SDS011;10678;51.002;4.786;2023-02-28T10:47:49;3.15;;;1.35;;
21038;SDS011;10678;51.002;4.786;2023-02-28T10:50:28;3.30;;;1.25;;
21038;SDS011;10678;51.002;4.786;2023-02-28T10:53:05;3.38;;;1.23;;
21038;SDS011;10678;51.002;4.786;2023-02-28T10:55:35;3.53;;;1.40;;
21038;SDS011;10678;51.002;4.786;2023-02-28T10:58:01;5.22;;;1.40;;
21038;SDS011;10678;51.002;4.786;2023-02-28T11:00:31;4.25;;;1.42;;
21038;SDS011;10678;51.002;4.786;2023-02-28T11:02:59;3.33;;;1.30;;
21038;SDS011;10678;51.002;4.786;2023-02-28T11:05:31;3.78;;;1.42;;
21038;SDS011;10678;51.002;4.786;2023-02-28T11:08:03;3.25;;;1.40;;
21038;SDS011;10678;51.002;4.786;2023-02-28T11:10:30;3.83;;;1.60;;
21038;SDS011;10678;51.002;4.786;2023-02-28T11:12:59;4.60;;;1.30;;
21038;SDS011;10678;51.002;4.786;2023-02-28T11:15:27;3.83;;;1.63;;
21038;SDS011;10678;51.002;4.786;2023-02-28T11:17:55;4.53;;;1.77;;
21038;SDS011;10678;51.002;4.786;2023-02-28T11:20:26;4.28;;;1.77;;
21038;SDS011;10678;51.002;4.786;2023-02-28T11:22:57;3.78;;;1.60;;
21038;SDS011;10678;51.002;4.786;2023-02-28T11:25:30;3.42;;;1.50;;
21038;SDS011;10678;51.002;4.786;2023-02-28T11:27:59;5.25;;;1.65;;
21038;SDS011;10678;51.002;4.786;2023-02-28T11:30:31;4.05;;;1.50;;
21038;SDS011;10678;51.002;4.786;2023-02-28T11:33:26;3.22;;;1.27;;
21038;SDS011;10678;51.002;4.786;2023-02-28T11:36:13;3.63;;;1.17;;
21038;SDS011;10678;51.002;4.786;2023-02-28T11:38:50;5.18;;;1.40;;
21038;SDS011;10678;51.002;4.786;2023-02-28T11:49:13;4.82;;;1.70;;
21038;SDS011;10678;51.002;4.786;2023-02-28T11:54:24;5.22;;;1.40;;
21038;SDS011;10678;51.002;4.786;2023-02-28T11:56:57;6.43;;;1.60;;
21038;SDS011;10678;51.002;4.786;2023-02-28T12:08:06;3.60;;;1.40;;
21038;SDS011;10678;51.002;4.786;2023-02-28T12:13:27;4.38;;;1.63;;
21038;SDS011;10678;51.002;4.786;2023-02-28T12:16:17;3.20;;;1.23;;
21038;SDS011;10678;51.002;4.786;2023-02-28T12:19:29;3.38;;;1.38;;
21038;SDS011;10678;51.002;4.786;2023-02-28T12:22:14;3.67;;;1.52;;
21038;SDS011;10678;51.002;4.786;2023-02-28T12:27:27;3.83;;;1.50;;
21038;SDS011;10678;51.002;4.786;2023-02-28T12:29:58;3.75;;;1.23;;
21038;SDS011;10678;51.002;4.786;2023-02-28T12:32:42;3.33;;;1.55;;
21038;SDS011;10678;51.002;4.786;2023-02-28T12:35:12;4.07;;;1.30;;
21038;SDS011;10678;51.002;4.786;2023-02-28T12:40:11;3.28;;;1.30;;
21038;SDS011;10678;51.002;4.786;2023-02-28T12:42:48;5.30;;;1.73;;
21038;SDS011;10678;51.002;4.786;2023-02-28T12:45:25;3.72;;;1.20;;
21038;SDS011;10678;51.002;4.786;2023-02-28T12:48:15;2.88;;;1.25;;
21038;SDS011;10678;51.002;4.786;2023-02-28T12:50:45;4.65;;;1.52;;
21038;SDS011;10678;51.002;4.786;2023-02-28T12:53:18;5.40;;;1.67;;
21038;SDS011;10678;51.002;4.786;2023-02-28T12:59:42;4.43;;;1.60;;
21038;SDS011;10678;51.002;4.786;2023-02-28T13:02:02;4.65;;;1.50;;
21038;SDS011;10678;51.002;4.786;2023-02-28T13:07:47;4.30;;;1.80;;
21038;SDS011;10678;51.002;4.786;2023-02-28T13:10:42;4.70;;;1.40;;
21038;SDS011;10678;51.002;4.786;2023-02-28T13:13:15;3.92;;;1.58;;
21038;SDS011;10678;51.002;4.786;2023-02-28T13:15:56;3.97;;;1.40;;
21038;SDS011;10678;51.002;4.786;2023-02-28T13:18:32;4.18;;;1.40;;
21038;SDS011;10678;51.002;4.786;2023-02-28T13:21:26;5.07;;;1.70;;
21038;SDS011;10678;51.002;4.786;2023-02-28T13:23:57;4.15;;;1.50;;
21038;SDS011;10678;51.002;4.786;2023-02-28T13:34:33;7.55;;;1.75;;
21038;SDS011;10678;51.002;4.786;2023-02-28T13:47:28;4.50;;;2.00;;
21038;SDS011;10678;51.002;4.786;2023-02-28T14:07:04;5.03;;;2.30;;
21038;SDS011;10678;51.002;4.786;2023-02-28T14:09:34;4.27;;;1.80;;
21038;SDS011;10678;51.002;4.786;2023-02-28T14:17:54;4.23;;;1.97;;
21038;SDS011;10678;51.002;4.786;2023-02-28T14:20:21;4.80;;;2.27;;
21038;SDS011;10678;51.002;4.786;2023-02-28T14:22:55;5.43;;;1.80;;
21038;SDS011;10678;51.002;4.786;2023-02-28T14:25:44;3.97;;;1.93;;
21038;SDS011;10678;51.002;4.786;2023-02-28T14:31:05;7.07;;;2.00;;
21038;SDS011;10678;51.002;4.786;2023-02-28T14:36:43;5.27;;;2.20;;
21038;SDS011;10678;51.002;4.786;2023-02-28T14:39:17;7.03;;;2.03;;
21038;SDS011;10678;51.002;4.786;2023-02-28T14:41:46;4.83;;;2.27;;
21038;SDS011;10678;51.002;4.786;2023-02-28T14:44:17;4.80;;;2.23;;
21038;SDS011;10678;51.002;4.786;2023-02-28T14:46:50;4.87;;;2.20;;
21038;SDS011;10678;51.002;4.786;2023-02-28T14:49:32;8.13;;;2.50;;
21038;SDS011;10678;51.002;4.786;2023-02-28T14:52:20;5.17;;;2.20;;
21038;SDS011;10678;51.002;4.786;2023-02-28T14:54:55;4.93;;;1.87;;
21038;SDS011;10678;51.002;4.786;2023-02-28T14:57:34;4.13;;;1.73;;
21038;SDS011;10678;51.002;4.786;2023-02-28T15:02:49;5.40;;;2.30;;
21038;SDS011;10678;51.002;4.786;2023-02-28T15:07:48;11.30;;;3.60;;
21038;SDS011;10678;51.002;4.786;2023-02-28T15:10:26;4.33;;;2.00;;
21038;SDS011;10678;51.002;4.786;2023-02-28T15:15:18;5.47;;;2.47;;
21038;SDS011;10678;51.002;4.786;2023-02-28T15:17:46;5.40;;;2.00;;
21038;SDS011;10678;51.002;4.786;2023-02-28T15:20:18;4.80;;;2.07;;
21038;SDS011;10678;51.002;4.786;2023-02-28T15:22:45;7.37;;;2.50;;
21038;SDS011;10678;51.002;4.786;2023-02-28T15:25:15;4.63;;;2.10;;
21038;SDS011;10678;51.002;4.786;2023-02-28T15:27:46;6.70;;;2.00;;
21038;SDS011;10678;51.002;4.786;2023-02-28T15:30:15;4.83;;;2.10;;
21038;SDS011;10678;51.002;4.786;2023-02-28T15:35:33;4.87;;;2.27;;
21038;SDS011;10678;51.002;4.786;2023-02-28T15:40:37;5.23;;;2.17;;
21038;SDS011;10678;51.002;4.786;2023-02-28T15:43:06;4.53;;;2.13;;
21038;SDS011;10678;51.002;4.786;2023-02-28T15:45:46;6.53;;;2.40;;
21038;SDS011;10678;51.002;4.786;2023-02-28T15:48:22;4.80;;;2.07;;
21038;SDS011;10678;51.002;4.786;2023-02-28T15:51:09;4.07;;;1.97;;
21038;SDS011;10678;51.002;4.786;2023-02-28T15:54:06;4.27;;;2.00;;
21038;SDS011;10678;51.002;4.786;2023-02-28T15:56:38;5.53;;;2.10;;
21038;SDS011;10678;51.002;4.786;2023-02-28T15:59:12;8.20;;;2.80;;
21038;SDS011;10678;51.002;4.786;2023-02-28T16:05:00;4.70;;;2.17;;
21038;SDS011;10678;51.002;4.786;2023-02-28T16:07:26;6.23;;;2.20;;
21038;SDS011;10678;51.002;4.786;2023-02-28T16:09:52;5.90;;;2.87;;
21038;SDS011;10678;51.002;4.786;2023-02-28T16:12:18;6.87;;;2.13;;
21038;SDS011;10678;51.002;4.786;2023-02-28T16:14:50;6.83;;;2.10;;
21038;SDS011;10678;51.002;4.786;2023-02-28T16:17:21;4.97;;;2.20;;
21038;SDS011;10678;51.002;4.786;2023-02-28T16:19:52;5.57;;;2.20;;
21038;SDS011;10678;51.002;4.786;2023-02-28T16:22:19;4.90;;;1.93;;
21038;SDS011;10678;51.002;4.786;2023-02-28T16:24:44;6.57;;;2.10;;
21038;SDS011;10678;51.002;4.786;2023-02-28T16:27:14;5.60;;;2.20;;
21038;SDS011;10678;51.002;4.786;2023-02-28T16:29:44;5.97;;;2.20;;
21038;SDS011;10678;51.002;4.786;2023-02-28T16:32:12;3.93;;;1.93;;
21038;SDS011;10678;51.002;4.786;2023-02-28T16:34:40;6.13;;;2.27;;
21038;SDS011;10678;51.002;4.786;2023-02-28T16:37:10;4.60;;;2.20;;
21038;SDS011;10678;51.002;4.786;2023-02-28T16:39:37;7.93;;;2.27;;
21038;SDS011;10678;51.002;4.786;2023-02-28T16:42:03;5.00;;;2.10;;
21038;SDS011;10678;51.002;4.786;2023-02-28T16:44:33;5.30;;;2.03;;
21038;SDS011;10678;51.002;4.786;2023-02-28T16:47:01;4.50;;;2.13;;
21038;SDS011;10678;51.002;4.786;2023-02-28T17:03:11;7.37;;;2.87;;
21038;SDS011;10678;51.002;4.786;2023-02-28T17:05:47;6.60;;;2.53;;
21038;SDS011;10678;51.002;4.786;2023-02-28T17:08:12;4.03;;;2.20;;
21038;SDS011;10678;51.002;4.786;2023-02-28T17:10:38;5.07;;;2.47;;
21038;SDS011;10678;51.002;4.786;2023-02-28T17:13:03;5.80;;;2.40;;
21038;SDS011;10678;51.002;4.786;2023-02-28T17:15:32;5.20;;;2.60;;
21038;SDS011;10678;51.002;4.786;2023-02-28T17:17:58;5.53;;;2.53;;
21038;SDS011;10678;51.002;4.786;2023-02-28T17:20:24;6.10;;;2.53;;
21038;SDS011;10678;51.002;4.786;2023-02-28T17:22:51;5.27;;;1.80;;
21038;SDS011;10678;51.002;4.786;2023-02-28T17:25:17;4.60;;;2.13;;
21038;SDS011;10678;51.002;4.786;2023-02-28T17:27:44;6.07;;;2.40;;
21038;SDS011;10678;51.002;4.786;2023-02-28T17:30:19;6.10;;;2.30;;